createdAt,value
2019-03-26T00:00:00.401Z,94.27
2019-03-26T00:01:00.319Z,93.54
2019-03-26T00:02:00.326Z,94.58
2019-03-26T00:03:00.305Z,94.48
2019-03-26T00:04:05.647Z,93.54
2019-03-26T00:05:01.296Z,94.17
2019-03-26T00:06:00.273Z,94.06
2019-03-26T00:07:00.264Z,93.13
2019-03-26T00:08:00.254Z,93.02
2019-03-26T00:09:00.303Z,93.13
2019-03-26T00:10:00.411Z,93.02
2019-03-26T00:11:00.248Z,92.61
2019-03-26T00:12:00.203Z,93.02
2019-03-26T00:13:00.205Z,92.61
2019-03-26T00:14:00.179Z,92.51
2019-03-26T00:15:00.457Z,92.72
2019-03-26T00:16:00.183Z,92.72
2019-03-26T00:17:00.140Z,92.61
2019-03-26T00:18:00.142Z,92.72
2019-03-26T00:19:00.129Z,92.61
2019-03-26T00:20:00.345Z,92.41
2019-03-26T00:21:00.107Z,92.30
2019-03-26T00:22:00.126Z,92.51
2019-03-26T00:23:00.076Z,92.51
2019-03-26T00:24:00.087Z,92.51
2019-03-26T00:25:00.251Z,92.51
2019-03-26T00:26:00.058Z,92.82
2019-03-26T00:27:00.036Z,92.82
2019-03-26T00:28:00.054Z,92.30
2019-03-26T00:29:00.012Z,92.41
2019-03-26T00:30:00.008Z,92.20
2019-03-26T00:30:59.997Z,92.20
2019-03-26T00:32:00.044Z,92.20
2019-03-26T00:32:59.973Z,92.41
2019-03-26T00:33:59.983Z,91.95
2019-03-26T00:34:59.953Z,92.30
2019-03-26T00:35:59.947Z,91.99
2019-03-26T00:36:59.932Z,92.05
2019-03-26T00:37:59.945Z,92.26
2019-03-26T00:38:59.922Z,92.51
2019-03-26T00:39:59.924Z,92.10
2019-03-26T00:40:59.885Z,92.51
2019-03-26T00:41:59.891Z,92.10
2019-03-26T00:42:59.870Z,92.20
2019-03-26T00:43:59.917Z,92.47
2019-03-26T00:44:59.883Z,92.20
2019-03-26T00:45:59.853Z,92.26
2019-03-26T00:46:59.831Z,92.05
2019-03-26T00:47:59.833Z,92.26
2019-03-26T00:48:59.802Z,92.16
2019-03-26T00:49:59.802Z,92.26
2019-03-26T00:50:59.813Z,92.05
2019-03-26T00:51:59.768Z,92.98
2019-03-26T00:52:59.764Z,92.36
2019-03-26T00:53:59.756Z,92.36
2019-03-26T00:54:59.780Z,92.68
2019-03-26T00:55:59.787Z,91.74
2019-03-26T00:56:59.723Z,91.33
2019-03-26T00:58:01.623Z,91.64
2019-03-26T00:58:59.723Z,91.43
2019-03-26T00:59:59.692Z,91.33
2019-03-26T01:00:59.712Z,91.12
2019-03-26T01:01:59.671Z,90.50
2019-03-26T01:02:59.687Z,90.91
2019-03-26T01:03:59.647Z,90.91
2019-03-26T01:04:59.655Z,91.12
2019-03-26T01:05:59.626Z,90.81
2019-03-26T01:06:59.641Z,90.70
2019-03-26T01:07:59.683Z,90.66
2019-03-26T01:08:59.587Z,91.64
2019-03-26T01:09:59.608Z,91.33
2019-03-26T01:10:59.574Z,91.33
2019-03-26T01:11:59.555Z,91.43
2019-03-26T01:12:59.562Z,91.33
2019-03-26T01:13:59.555Z,91.43
2019-03-26T01:14:59.539Z,90.70
2019-03-26T01:15:59.551Z,90.66
2019-03-26T01:16:59.514Z,90.97
2019-03-26T01:17:59.515Z,90.87
2019-03-26T01:18:59.482Z,90.81
2019-03-26T01:19:59.562Z,90.56
2019-03-26T01:20:59.476Z,89.98
2019-03-26T01:21:59.478Z,89.83
2019-03-26T01:22:59.444Z,90.19
2019-03-26T01:23:59.436Z,89.83
2019-03-26T01:24:59.420Z,88.94
2019-03-26T01:25:59.418Z,88.18
2019-03-26T01:26:59.406Z,87.70
2019-03-26T01:27:59.408Z,88.28
2019-03-26T01:28:59.385Z,87.87
2019-03-26T01:29:59.375Z,88.07
2019-03-26T01:30:59.364Z,88.28
2019-03-26T01:31:59.354Z,87.76
2019-03-26T01:32:59.370Z,87.97
2019-03-26T01:33:59.326Z,88.48
2019-03-26T01:34:59.322Z,88.39
2019-03-26T01:35:59.311Z,87.45
2019-03-26T01:36:59.303Z,87.45
2019-03-26T01:37:59.310Z,87.55
2019-03-26T01:38:59.322Z,87.55
2019-03-26T01:39:59.265Z,87.24
2019-03-26T01:40:59.261Z,87.55
2019-03-26T01:41:59.396Z,86.72
2019-03-26T01:42:59.243Z,87.66
2019-03-26T01:43:59.227Z,87.04
2019-03-26T01:44:59.256Z,86.52
2019-03-26T01:45:59.209Z,86.62
2019-03-26T01:46:59.194Z,86.41
2019-03-26T01:47:59.178Z,86.41
2019-03-26T01:48:59.173Z,86.21
2019-03-26T01:49:59.162Z,86.10
2019-03-26T01:50:59.172Z,86.52
2019-03-26T01:51:59.144Z,86.31
2019-03-26T01:52:59.141Z,86.52
2019-03-26T01:53:59.125Z,85.89
2019-03-26T01:54:59.119Z,86.21
2019-03-26T01:55:59.131Z,86.31
2019-03-26T01:56:59.110Z,86.72
2019-03-26T01:57:59.074Z,86.41
2019-03-26T01:58:59.084Z,86.93
2019-03-26T01:59:59.056Z,87.14
2019-03-26T02:00:59.048Z,87.04
2019-03-26T02:01:59.038Z,87.04
2019-03-26T02:02:59.058Z,86.83
2019-03-26T02:03:59.014Z,87.14
2019-03-26T02:05:00.444Z,87.04
2019-03-26T02:05:59.011Z,87.18
2019-03-26T02:06:58.988Z,86.83
2019-03-26T02:07:58.974Z,87.04
2019-03-26T02:08:59.021Z,87.07
2019-03-26T02:09:58.946Z,86.97
2019-03-26T02:10:58.949Z,86.93
2019-03-26T02:11:58.940Z,87.04
2019-03-26T02:12:58.918Z,87.14
2019-03-26T02:13:58.951Z,87.04
2019-03-26T02:14:58.918Z,87.04
2019-03-26T02:15:58.888Z,87.76
2019-03-26T02:16:58.877Z,87.14
2019-03-26T02:17:58.888Z,87.14
2019-03-26T02:18:58.853Z,87.45
2019-03-26T02:19:58.872Z,87.45
2019-03-26T02:20:58.834Z,87.66
2019-03-26T02:21:58.822Z,87.14
2019-03-26T02:22:58.808Z,87.14
2019-03-26T02:23:58.799Z,86.93
2019-03-26T02:24:58.796Z,87.55
2019-03-26T02:25:58.808Z,87.45
2019-03-26T02:26:58.783Z,87.04
2019-03-26T02:27:58.759Z,86.83
2019-03-26T02:28:58.747Z,86.72
2019-03-26T02:29:58.741Z,86.93
2019-03-26T02:30:58.737Z,87.04
2019-03-26T02:31:58.749Z,86.83
2019-03-26T02:32:58.887Z,86.21
2019-03-26T02:33:58.702Z,86.31
2019-03-26T02:34:58.731Z,85.79
2019-03-26T02:35:58.670Z,86.15
2019-03-26T02:36:58.662Z,86.10
2019-03-26T02:37:59.111Z,85.89
2019-03-26T02:38:58.644Z,85.94
2019-03-26T02:39:58.635Z,85.89
2019-03-26T02:40:58.640Z,86.04
2019-03-26T02:41:58.607Z,86.00
2019-03-26T02:42:58.633Z,86.10
2019-03-26T02:43:58.623Z,85.06
2019-03-26T02:44:58.580Z,84.96
2019-03-26T02:45:58.587Z,85.31
2019-03-26T02:46:58.582Z,84.65
2019-03-26T02:47:58.573Z,84.86
2019-03-26T02:48:58.547Z,84.44
2019-03-26T02:49:58.554Z,84.96
2019-03-26T02:50:58.555Z,84.34
2019-03-26T02:51:58.515Z,84.34
2019-03-26T02:52:58.496Z,84.65
2019-03-26T02:53:58.498Z,84.65
2019-03-26T02:54:58.505Z,84.34
2019-03-26T02:55:58.464Z,84.34
2019-03-26T02:56:58.462Z,84.44
2019-03-26T02:57:58.465Z,84.34
2019-03-26T02:58:58.455Z,84.13
2019-03-26T02:59:58.427Z,84.34
2019-03-26T03:00:58.471Z,84.03
2019-03-26T03:01:58.406Z,83.93
2019-03-26T03:02:58.388Z,83.93
2019-03-26T03:03:58.399Z,84.13
2019-03-26T03:04:58.375Z,84.23
2019-03-26T03:05:58.370Z,84.23
2019-03-26T03:06:58.386Z,84.03
2019-03-26T03:07:58.347Z,84.03
2019-03-26T03:08:58.337Z,84.44
2019-03-26T03:09:58.318Z,84.13
2019-03-26T03:10:58.309Z,84.44
2019-03-26T03:11:58.304Z,84.03
2019-03-26T03:12:58.330Z,84.38
2019-03-26T03:13:58.285Z,84.59
2019-03-26T03:14:58.274Z,84.55
2019-03-26T03:15:58.256Z,84.65
2019-03-26T03:16:58.278Z,84.75
2019-03-26T03:17:58.272Z,84.75
2019-03-26T03:18:58.246Z,84.55
2019-03-26T03:19:58.222Z,84.69
2019-03-26T03:20:58.207Z,84.59
2019-03-26T03:21:58.234Z,84.44
2019-03-26T03:22:58.197Z,84.86
2019-03-26T03:23:58.169Z,84.86
2019-03-26T03:24:58.195Z,85.21
2019-03-26T03:25:58.156Z,85.21
2019-03-26T03:26:58.149Z,85.00
2019-03-26T03:27:58.129Z,85.11
2019-03-26T03:28:58.128Z,85.17
2019-03-26T03:29:58.112Z,85.17
2019-03-26T03:30:58.203Z,85.48
2019-03-26T03:31:58.087Z,85.38
2019-03-26T03:32:58.083Z,85.17
2019-03-26T03:33:58.079Z,85.38
2019-03-26T03:34:58.074Z,86.10
2019-03-26T03:35:58.067Z,86.00
2019-03-26T03:36:58.053Z,86.10
2019-03-26T03:37:58.037Z,85.79
2019-03-26T03:38:58.010Z,85.79
2019-03-26T03:39:58.006Z,85.89
2019-03-26T03:40:57.999Z,85.79
2019-03-26T03:41:58.023Z,85.69
2019-03-26T03:42:57.996Z,85.79
2019-03-26T03:43:57.958Z,86.00
2019-03-26T03:44:57.963Z,85.86
2019-03-26T03:45:57.941Z,85.69
2019-03-26T03:46:57.926Z,85.89
2019-03-26T03:47:57.952Z,85.89
2019-03-26T03:48:57.937Z,85.86
2019-03-26T03:49:57.907Z,86.21
2019-03-26T03:50:57.895Z,86.07
2019-03-26T03:51:57.882Z,86.37
2019-03-26T03:52:57.905Z,86.41
2019-03-26T03:53:57.902Z,86.27
2019-03-26T03:54:57.876Z,86.37
2019-03-26T03:55:57.832Z,86.17
2019-03-26T03:56:57.835Z,86.17
2019-03-26T03:57:57.816Z,86.58
2019-03-26T03:58:57.801Z,87.10
2019-03-26T03:59:57.807Z,86.37
2019-03-26T04:00:57.798Z,86.37
2019-03-26T04:01:57.776Z,86.17
2019-03-26T04:02:57.766Z,87.10
2019-03-26T04:03:57.759Z,86.89
2019-03-26T04:04:57.781Z,86.89
2019-03-26T04:06:09.177Z,86.99
2019-03-26T04:06:58.731Z,86.99
2019-03-26T04:07:57.725Z,86.68
2019-03-26T04:08:57.706Z,87.10
2019-03-26T04:09:57.695Z,86.47
2019-03-26T04:10:57.706Z,86.07
2019-03-26T04:11:57.686Z,86.17
2019-03-26T04:12:57.660Z,86.07
2019-03-26T04:13:57.654Z,86.52
2019-03-26T04:14:57.654Z,86.72
2019-03-26T04:15:57.624Z,86.41
2019-03-26T04:16:57.632Z,87.14
2019-03-26T04:17:57.620Z,86.83
2019-03-26T04:18:57.592Z,87.04
2019-03-26T04:19:57.589Z,86.93
2019-03-26T04:20:57.586Z,87.66
2019-03-26T04:21:58.089Z,87.55
2019-03-26T04:22:57.554Z,87.76
2019-03-26T04:23:57.557Z,87.76
2019-03-26T04:24:57.543Z,87.66
2019-03-26T04:25:57.525Z,88.07
2019-03-26T04:26:57.519Z,87.76
2019-03-26T04:27:57.534Z,88.07
2019-03-26T04:28:57.496Z,88.39
2019-03-26T04:29:57.486Z,88.39
2019-03-26T04:30:57.473Z,88.07
2019-03-26T04:31:57.468Z,87.87
2019-03-26T04:32:57.457Z,87.97
2019-03-26T04:33:57.474Z,88.28
2019-03-26T04:34:57.429Z,88.48
2019-03-26T04:35:57.419Z,88.69
2019-03-26T04:36:57.412Z,88.79
2019-03-26T04:37:57.409Z,89.52
2019-03-26T04:38:57.399Z,89.62
2019-03-26T04:39:57.478Z,89.21
2019-03-26T04:40:57.361Z,89.73
2019-03-26T04:41:57.349Z,89.89
2019-03-26T04:42:57.344Z,90.04
2019-03-26T04:43:57.370Z,89.83
2019-03-26T04:44:57.361Z,90.10
2019-03-26T04:45:57.310Z,90.56
2019-03-26T04:46:57.300Z,90.66
2019-03-26T04:47:57.297Z,91.39
2019-03-26T04:48:57.287Z,89.83
2019-03-26T04:49:57.276Z,89.89
2019-03-26T04:50:57.288Z,89.58
2019-03-26T04:51:57.249Z,89.48
2019-03-26T04:52:57.237Z,89.38
2019-03-26T04:53:57.229Z,89.07
2019-03-26T04:54:57.237Z,88.86
2019-03-26T04:55:57.207Z,88.86
2019-03-26T04:56:57.218Z,88.65
2019-03-26T04:57:57.183Z,88.24
2019-03-26T04:58:57.182Z,87.99
2019-03-26T04:59:57.181Z,88.20
2019-03-26T05:00:57.151Z,87.99
2019-03-26T05:01:57.176Z,87.99
2019-03-26T05:02:57.134Z,87.41
2019-03-26T05:03:57.137Z,87.57
2019-03-26T05:04:57.112Z,87.37
2019-03-26T05:05:57.112Z,87.78
2019-03-26T05:06:57.099Z,87.57
2019-03-26T05:07:57.129Z,87.68
2019-03-26T05:08:57.070Z,87.68
2019-03-26T05:09:57.082Z,88.09
2019-03-26T05:10:57.049Z,87.88
2019-03-26T05:11:57.048Z,88.51
2019-03-26T05:12:57.031Z,89.03
2019-03-26T05:13:57.040Z,89.23
2019-03-26T05:14:57.016Z,89.29
2019-03-26T05:15:56.996Z,89.54
2019-03-26T05:16:56.984Z,89.86
2019-03-26T05:17:57.045Z,90.68
2019-03-26T05:18:57.003Z,90.06
2019-03-26T05:19:56.961Z,91.03
2019-03-26T05:20:56.943Z,91.14
2019-03-26T05:21:56.933Z,90.47
2019-03-26T05:22:56.938Z,90.37
2019-03-26T05:23:56.915Z,90.47
2019-03-26T05:24:56.937Z,91.20
2019-03-26T05:25:56.896Z,90.93
2019-03-26T05:26:56.896Z,90.72
2019-03-26T05:27:56.871Z,90.62
2019-03-26T05:28:56.873Z,90.83
2019-03-26T05:29:56.877Z,91.03
2019-03-26T05:30:56.867Z,91.14
2019-03-26T05:31:56.836Z,90.93
2019-03-26T05:32:56.820Z,91.35
2019-03-26T05:33:56.815Z,90.52
2019-03-26T05:34:56.804Z,90.52
2019-03-26T05:35:56.784Z,90.41
2019-03-26T05:36:56.798Z,89.83
2019-03-26T05:37:56.772Z,90.04
2019-03-26T05:38:56.761Z,89.79
2019-03-26T05:39:56.761Z,89.79
2019-03-26T05:40:56.735Z,89.69
2019-03-26T05:41:56.752Z,89.69
2019-03-26T05:42:56.711Z,89.48
2019-03-26T05:43:56.699Z,89.17
2019-03-26T05:44:56.701Z,88.55
2019-03-26T05:45:56.682Z,88.90
2019-03-26T05:46:56.671Z,88.76
2019-03-26T05:47:56.774Z,88.24
2019-03-26T05:48:56.656Z,87.93
2019-03-26T05:49:56.635Z,88.24
2019-03-26T05:50:56.638Z,87.82
2019-03-26T05:51:56.672Z,87.30
2019-03-26T05:52:56.609Z,86.79
2019-03-26T05:53:56.622Z,87.30
2019-03-26T05:54:56.642Z,87.55
2019-03-26T05:55:56.568Z,86.62
2019-03-26T05:56:56.565Z,87.51
2019-03-26T05:57:56.579Z,86.99
2019-03-26T05:58:56.567Z,86.07
2019-03-26T05:59:56.538Z,85.69
2019-03-26T06:00:56.516Z,85.75
2019-03-26T06:01:56.520Z,86.10
2019-03-26T06:02:56.501Z,84.61
2019-03-26T06:03:56.496Z,84.61
2019-03-26T06:04:56.518Z,84.20
2019-03-26T06:05:56.478Z,83.89
2019-03-26T06:07:04.762Z,83.47
2019-03-26T06:07:57.446Z,83.58
2019-03-26T06:08:56.435Z,83.68
2019-03-26T06:09:56.419Z,84.06
2019-03-26T06:10:56.441Z,83.58
2019-03-26T06:11:56.412Z,83.95
2019-03-26T06:12:56.399Z,83.89
2019-03-26T06:13:56.391Z,84.20
2019-03-26T06:14:56.402Z,83.99
2019-03-26T06:15:56.381Z,83.99
2019-03-26T06:16:56.386Z,83.37
2019-03-26T06:17:57.627Z,83.78
2019-03-26T06:18:56.336Z,83.44
2019-03-26T06:19:56.322Z,83.54
2019-03-26T06:20:56.313Z,83.54
2019-03-26T06:21:56.297Z,83.44
2019-03-26T06:22:56.361Z,84.16
2019-03-26T06:23:56.282Z,82.92
2019-03-26T06:24:56.277Z,83.12
2019-03-26T06:25:56.261Z,83.54
2019-03-26T06:26:56.321Z,82.60
2019-03-26T06:27:56.241Z,83.02
2019-03-26T06:28:56.260Z,81.78
2019-03-26T06:29:56.221Z,81.84
2019-03-26T06:30:56.348Z,81.84
2019-03-26T06:31:56.193Z,81.54
2019-03-26T06:32:56.193Z,81.74
2019-03-26T06:33:56.201Z,81.54
2019-03-26T06:34:56.183Z,81.02
2019-03-26T06:35:56.155Z,81.64
2019-03-26T06:36:56.145Z,81.02
2019-03-26T06:37:56.133Z,81.70
2019-03-26T06:38:56.117Z,82.01
2019-03-26T06:39:58.438Z,81.09
2019-03-26T06:40:56.103Z,80.98
2019-03-26T06:41:56.102Z,81.12
2019-03-26T06:42:56.088Z,81.19
2019-03-26T06:43:56.068Z,81.39
2019-03-26T06:44:56.055Z,81.19
2019-03-26T06:45:56.073Z,81.49
2019-03-26T06:46:56.034Z,80.98
2019-03-26T06:47:56.046Z,81.67
2019-03-26T06:48:56.023Z,81.46
2019-03-26T06:49:56.154Z,81.35
2019-03-26T06:50:56.000Z,81.56
2019-03-26T06:51:56.009Z,81.35
2019-03-26T06:52:55.978Z,81.73
2019-03-26T06:53:56.017Z,81.73
2019-03-26T06:54:55.965Z,82.35
2019-03-26T06:55:56.019Z,82.76
2019-03-26T06:56:55.948Z,82.97
2019-03-26T06:57:55.922Z,82.45
2019-03-26T06:58:55.913Z,82.45
2019-03-26T06:59:55.901Z,82.60
2019-03-26T07:00:55.901Z,82.66
2019-03-26T07:01:55.905Z,82.66
2019-03-26T07:02:55.876Z,82.18
2019-03-26T07:03:55.934Z,82.56
2019-03-26T07:04:55.846Z,82.66
2019-03-26T07:05:55.846Z,82.25
2019-03-26T07:06:57.803Z,82.66
2019-03-26T07:07:55.823Z,82.56
2019-03-26T07:08:55.808Z,82.35
2019-03-26T07:09:55.802Z,82.66
2019-03-26T07:10:55.817Z,82.66
2019-03-26T07:11:55.778Z,82.25
2019-03-26T07:12:55.796Z,82.45
2019-03-26T07:13:55.749Z,82.45
2019-03-26T07:14:55.750Z,82.35
2019-03-26T07:15:55.734Z,82.87
2019-03-26T07:16:55.729Z,82.35
2019-03-26T07:17:55.705Z,82.52
2019-03-26T07:18:55.797Z,82.35
2019-03-26T07:19:55.691Z,82.21
2019-03-26T07:20:55.750Z,82.62
2019-03-26T07:21:55.672Z,82.25
2019-03-26T07:22:55.685Z,81.70
2019-03-26T07:23:55.676Z,81.49
2019-03-26T07:24:55.636Z,81.49
2019-03-26T07:25:55.624Z,81.59
2019-03-26T07:26:55.612Z,82.00
2019-03-26T07:27:55.604Z,81.38
2019-03-26T07:28:56.820Z,82.42
2019-03-26T07:29:56.137Z,81.28
2019-03-26T07:30:55.566Z,81.90
2019-03-26T07:31:55.563Z,81.96
2019-03-26T07:32:55.549Z,82.21
2019-03-26T07:33:55.554Z,81.38
2019-03-26T07:34:55.560Z,81.35
2019-03-26T07:35:55.576Z,81.80
2019-03-26T07:36:55.509Z,81.66
2019-03-26T07:37:55.493Z,82.17
2019-03-26T07:38:55.498Z,82.10
2019-03-26T07:39:55.481Z,81.96
2019-03-26T07:40:55.520Z,81.56
2019-03-26T07:41:55.456Z,81.70
2019-03-26T07:42:55.449Z,81.76
2019-03-26T07:43:55.442Z,82.21
2019-03-26T07:44:55.425Z,81.24
2019-03-26T07:45:55.428Z,81.70
2019-03-26T07:46:55.429Z,81.59
2019-03-26T07:47:55.390Z,82.00
2019-03-26T07:48:55.379Z,82.07
2019-03-26T07:49:55.369Z,81.96
2019-03-26T07:50:55.358Z,81.96
2019-03-26T07:51:55.351Z,82.07
2019-03-26T07:52:55.348Z,81.35
2019-03-26T07:53:55.332Z,81.66
2019-03-26T07:54:55.315Z,81.35
2019-03-26T07:55:55.307Z,81.45
2019-03-26T07:56:55.295Z,81.66
2019-03-26T07:57:55.335Z,81.86
2019-03-26T07:58:55.282Z,80.83
2019-03-26T07:59:55.265Z,81.00
2019-03-26T08:00:55.312Z,80.28
2019-03-26T08:01:55.247Z,80.48
2019-03-26T08:02:55.232Z,80.58
2019-03-26T08:03:55.249Z,80.28
2019-03-26T08:04:55.204Z,80.38
2019-03-26T08:05:55.192Z,80.18
2019-03-26T08:06:55.214Z,79.45
2019-03-26T08:07:58.494Z,79.04
2019-03-26T08:08:55.168Z,79.35
2019-03-26T08:09:55.204Z,79.35
2019-03-26T08:10:55.206Z,79.45
2019-03-26T08:11:55.130Z,79.35
2019-03-26T08:12:55.170Z,79.11
2019-03-26T08:13:55.159Z,78.73
2019-03-26T08:14:55.101Z,79.35
2019-03-26T08:15:55.136Z,79.04
2019-03-26T08:16:55.126Z,79.04
2019-03-26T08:17:55.068Z,78.52
2019-03-26T08:18:55.107Z,78.49
2019-03-26T08:19:55.051Z,78.80
2019-03-26T08:20:57.456Z,78.59
2019-03-26T08:21:55.054Z,77.56
2019-03-26T08:22:55.093Z,78.38
2019-03-26T08:23:55.011Z,78.08
2019-03-26T08:24:55.002Z,77.31
2019-03-26T08:25:54.990Z,76.49
2019-03-26T08:26:54.993Z,75.67
2019-03-26T08:27:55.055Z,75.15
2019-03-26T08:28:54.958Z,75.77
2019-03-26T08:29:54.943Z,76.18
2019-03-26T08:30:54.933Z,76.70
2019-03-26T08:31:54.916Z,76.49
2019-03-26T08:32:54.924Z,76.73
2019-03-26T08:33:54.952Z,76.39
2019-03-26T08:34:54.889Z,76.49
2019-03-26T08:35:54.900Z,75.98
2019-03-26T08:36:54.911Z,75.98
2019-03-26T08:37:54.859Z,77.01
2019-03-26T08:38:54.842Z,77.11
2019-03-26T08:39:54.924Z,76.49
2019-03-26T08:40:54.816Z,76.08
2019-03-26T08:41:54.834Z,75.77
2019-03-26T08:42:54.801Z,75.56
2019-03-26T08:43:54.786Z,75.15
2019-03-26T08:44:54.773Z,75.56
2019-03-26T08:45:54.801Z,74.53
2019-03-26T08:46:54.756Z,75.77
2019-03-26T08:47:54.755Z,74.84
2019-03-26T08:48:54.731Z,75.15
2019-03-26T08:49:54.733Z,75.56
2019-03-26T08:50:54.727Z,75.36
2019-03-26T08:51:54.751Z,74.80
2019-03-26T08:52:54.685Z,74.19
2019-03-26T08:53:54.734Z,73.98
2019-03-26T08:54:54.668Z,73.43
2019-03-26T08:55:54.659Z,73.54
2019-03-26T08:56:54.651Z,73.33
2019-03-26T08:57:54.669Z,72.71
2019-03-26T08:58:54.636Z,72.20
2019-03-26T08:59:54.621Z,72.81
2019-03-26T09:00:54.607Z,72.61
2019-03-26T09:01:54.605Z,72.99
2019-03-26T09:02:54.644Z,73.23
2019-03-26T09:03:54.581Z,74.05
2019-03-26T09:04:54.559Z,74.91
2019-03-26T09:05:54.550Z,76.15
2019-03-26T09:06:54.542Z,78.11
2019-03-26T09:07:54.530Z,79.03
2019-03-26T09:08:54.530Z,81.30
2019-03-26T09:09:54.507Z,82.43
2019-03-26T09:10:54.492Z,82.78
2019-03-26T09:11:54.483Z,83.09
2019-03-26T09:12:54.477Z,83.23
2019-03-26T09:13:54.486Z,85.44
2019-03-26T09:14:54.461Z,86.57
2019-03-26T09:15:54.444Z,87.95
2019-03-26T09:16:54.425Z,88.47
2019-03-26T09:17:54.419Z,89.61
2019-03-26T09:18:54.434Z,90.99
2019-03-26T09:19:54.425Z,91.86
2019-03-26T09:20:54.392Z,92.17
2019-03-26T09:21:54.392Z,90.72
2019-03-26T09:22:54.360Z,89.11
2019-03-26T09:23:54.357Z,88.94
2019-03-26T09:24:54.350Z,89.56
2019-03-26T09:25:54.365Z,90.50
2019-03-26T09:26:54.410Z,92.25
2019-03-26T09:27:54.310Z,92.97
2019-03-26T09:28:54.294Z,93.76
2019-03-26T09:29:54.286Z,93.70
2019-03-26T09:30:54.326Z,92.77
2019-03-26T09:31:54.269Z,92.83
2019-03-26T09:32:54.251Z,92.93
2019-03-26T09:33:54.256Z,92.99
2019-03-26T09:34:54.251Z,92.89
2019-03-26T09:35:54.226Z,92.79
2019-03-26T09:36:54.247Z,91.86
2019-03-26T09:37:54.204Z,91.86
2019-03-26T09:38:54.214Z,92.02
2019-03-26T09:39:54.182Z,90.78
2019-03-26T09:40:54.175Z,90.99
2019-03-26T09:41:54.167Z,91.09
2019-03-26T09:42:54.182Z,90.95
2019-03-26T09:43:54.151Z,90.74
2019-03-26T09:44:56.626Z,91.05
2019-03-26T09:45:54.130Z,89.98
2019-03-26T09:46:54.106Z,90.08
2019-03-26T09:47:54.127Z,89.83
2019-03-26T09:48:54.123Z,89.22
2019-03-26T09:49:54.081Z,87.46
2019-03-26T09:50:54.073Z,87.77
2019-03-26T09:51:54.051Z,86.02
2019-03-26T09:52:54.046Z,84.22
2019-03-26T09:53:54.053Z,83.33
2019-03-26T09:54:54.072Z,82.10
2019-03-26T09:55:54.015Z,83.23
2019-03-26T09:56:53.999Z,83.13
2019-03-26T09:57:54.005Z,82.10
2019-03-26T09:58:54.052Z,82.71
2019-03-26T09:59:53.977Z,83.23
2019-03-26T10:00:53.985Z,83.75
2019-03-26T10:01:53.944Z,83.03
2019-03-26T10:02:53.935Z,84.16
2019-03-26T10:03:53.928Z,83.44
2019-03-26T10:04:53.915Z,83.13
2019-03-26T10:05:53.930Z,84.33
2019-03-26T10:06:53.959Z,83.19
2019-03-26T10:07:53.889Z,81.44
2019-03-26T10:08:53.866Z,82.37
2019-03-26T10:09:53.858Z,81.54
2019-03-26T10:10:53.853Z,80.62
2019-03-26T10:11:53.843Z,81.37
2019-03-26T10:12:53.846Z,81.54
2019-03-26T10:13:53.823Z,80.93
2019-03-26T10:14:53.811Z,81.34
2019-03-26T10:15:53.806Z,81.13
2019-03-26T10:16:53.782Z,81.13
2019-03-26T10:17:53.792Z,80.79
2019-03-26T10:18:53.762Z,79.75
2019-03-26T10:19:53.751Z,79.24
2019-03-26T10:20:53.792Z,77.80
2019-03-26T10:21:53.728Z,78.34
2019-03-26T10:22:53.765Z,79.38
2019-03-26T10:23:53.726Z,79.48
2019-03-26T10:24:53.699Z,78.66
2019-03-26T10:25:53.765Z,79.03
2019-03-26T10:26:53.751Z,78.62
2019-03-26T10:27:53.661Z,78.52
2019-03-26T10:28:53.690Z,79.03
2019-03-26T10:29:53.646Z,79.34
2019-03-26T10:30:53.633Z,79.75
2019-03-26T10:31:53.629Z,79.86
2019-03-26T10:32:53.621Z,80.27
2019-03-26T10:33:53.610Z,80.37
2019-03-26T10:34:53.627Z,79.34
2019-03-26T10:35:53.588Z,79.34
2019-03-26T10:36:53.575Z,79.30
2019-03-26T10:37:53.555Z,80.06
2019-03-26T10:39:54.561Z,78.69
2019-03-26T10:40:53.534Z,79.20
2019-03-26T10:41:53.513Z,79.51
2019-03-26T10:42:53.505Z,78.58
2019-03-26T10:43:53.488Z,77.86
2019-03-26T10:44:53.506Z,78.79
2019-03-26T10:45:53.512Z,78.79
2019-03-26T10:46:53.468Z,78.38
2019-03-26T10:47:53.520Z,77.76
2019-03-26T10:48:53.440Z,76.73
2019-03-26T10:49:53.425Z,75.60
2019-03-26T10:50:53.422Z,76.21
2019-03-26T10:51:53.459Z,75.70
2019-03-26T10:52:53.397Z,74.98
2019-03-26T10:53:53.390Z,74.36
2019-03-26T10:54:53.381Z,74.88
2019-03-26T10:55:53.368Z,74.95
2019-03-26T10:56:53.359Z,73.91
2019-03-26T10:57:53.380Z,72.47
2019-03-26T10:58:53.330Z,73.16
2019-03-26T10:59:53.326Z,72.03
2019-03-26T11:00:53.326Z,72.64
2019-03-26T11:01:53.309Z,70.79
2019-03-26T11:02:54.173Z,68.84
2019-03-26T11:03:53.308Z,68.94
2019-03-26T11:04:53.267Z,68.84
2019-03-26T11:05:53.261Z,68.02
2019-03-26T11:06:53.246Z,67.81
2019-03-26T11:07:53.238Z,66.96
2019-03-26T11:08:53.232Z,66.67
2019-03-26T11:09:53.239Z,66.13
2019-03-26T11:10:53.215Z,64.79
2019-03-26T11:11:53.186Z,65.31
2019-03-26T11:12:53.172Z,65.23
2019-03-26T11:13:53.173Z,66.03
2019-03-26T11:14:53.182Z,66.54
2019-03-26T11:15:53.145Z,67.16
2019-03-26T11:16:53.140Z,67.06
2019-03-26T11:17:53.137Z,66.44
2019-03-26T11:18:53.117Z,66.47
2019-03-26T11:19:53.099Z,67.06
2019-03-26T11:21:02.259Z,66.44
2019-03-26T11:21:54.077Z,66.85
2019-03-26T11:22:53.093Z,67.23
2019-03-26T11:23:53.057Z,67.65
2019-03-26T11:24:53.049Z,67.13
2019-03-26T11:25:53.035Z,68.37
2019-03-26T11:26:53.562Z,67.65
2019-03-26T11:27:53.008Z,67.54
2019-03-26T11:28:53.013Z,67.23
2019-03-26T11:29:52.994Z,66.41
2019-03-26T11:30:52.994Z,65.48
2019-03-26T11:31:52.996Z,66.72
2019-03-26T11:32:52.983Z,66.61
2019-03-26T11:33:53.011Z,66.00
2019-03-26T11:34:52.929Z,66.41
2019-03-26T11:35:52.960Z,65.11
2019-03-26T11:36:52.910Z,65.92
2019-03-26T11:37:52.919Z,66.34
2019-03-26T11:38:52.894Z,65.41
2019-03-26T11:39:52.872Z,66.03
2019-03-26T11:40:52.868Z,66.13
2019-03-26T11:41:52.881Z,66.96
2019-03-26T11:42:52.848Z,67.26
2019-03-26T11:43:52.872Z,67.88
2019-03-26T11:44:52.827Z,69.01
2019-03-26T11:45:52.815Z,68.91
2019-03-26T11:46:52.820Z,69.01
2019-03-26T11:47:52.792Z,69.12
2019-03-26T11:48:52.784Z,69.15
2019-03-26T11:49:52.795Z,69.25
2019-03-26T11:50:52.763Z,69.01
2019-03-26T11:51:52.746Z,69.66
2019-03-26T11:52:52.735Z,69.66
2019-03-26T11:53:52.731Z,69.25
2019-03-26T11:54:52.718Z,69.49
2019-03-26T11:55:52.726Z,70.28
2019-03-26T11:56:52.698Z,70.48
2019-03-26T11:57:52.678Z,71.20
2019-03-26T11:58:52.670Z,72.78
2019-03-26T11:59:52.682Z,74.02
2019-03-26T12:00:52.655Z,75.18
2019-03-26T12:01:52.762Z,75.08
2019-03-26T12:02:52.621Z,74.46
2019-03-26T12:03:52.616Z,74.98
2019-03-26T12:04:52.674Z,72.92
2019-03-26T12:05:52.604Z,73.02
2019-03-26T12:06:52.583Z,74.05
2019-03-26T12:07:52.574Z,73.95
2019-03-26T12:08:52.563Z,74.67
2019-03-26T12:09:52.570Z,73.23
2019-03-26T12:10:52.565Z,73.13
2019-03-26T12:11:52.524Z,73.23
2019-03-26T12:12:52.524Z,73.23
2019-03-26T12:13:52.506Z,74.26
2019-03-26T12:14:52.501Z,74.88
2019-03-26T12:15:52.519Z,77.66
2019-03-26T12:16:52.494Z,80.85
2019-03-26T12:17:52.496Z,81.71
2019-03-26T12:18:52.453Z,83.54
2019-03-26T12:19:52.441Z,85.75
2019-03-26T12:20:52.452Z,88.12
2019-03-26T12:21:52.412Z,89.50
2019-03-26T12:22:52.434Z,88.78
2019-03-26T12:23:52.399Z,88.31
2019-03-26T12:24:52.403Z,88.92
2019-03-26T12:25:52.375Z,89.34
2019-03-26T12:26:52.392Z,89.48
2019-03-26T12:27:52.353Z,90.93
2019-03-26T12:28:52.413Z,89.59
2019-03-26T12:29:52.330Z,89.79
2019-03-26T12:30:52.314Z,91.03
2019-03-26T12:31:52.314Z,90.41
2019-03-26T12:32:52.306Z,90.83
2019-03-26T12:33:52.298Z,89.79
2019-03-26T12:34:52.296Z,91.13
2019-03-26T12:35:52.264Z,89.54
2019-03-26T12:36:52.268Z,89.28
2019-03-26T12:37:52.289Z,89.59
2019-03-26T12:38:52.237Z,88.96
2019-03-26T12:39:59.510Z,89.48
2019-03-26T12:40:53.224Z,88.34
2019-03-26T12:41:52.239Z,87.58
2019-03-26T12:42:52.200Z,87.79
2019-03-26T12:43:52.215Z,87.93
2019-03-26T12:44:52.176Z,87.62
2019-03-26T12:45:52.184Z,87.31
2019-03-26T12:46:52.158Z,86.07
2019-03-26T12:47:52.164Z,85.72
2019-03-26T12:48:52.126Z,85.55
2019-03-26T12:49:52.113Z,84.69
2019-03-26T12:50:52.109Z,84.59
2019-03-26T12:51:52.117Z,85.41
2019-03-26T12:52:52.100Z,86.34